SCCY/GXQ METAR and TAF weather

Enter ICAO airport designator
Station Type Date Time Source
SCCY METAR 2020/08/11 01:00 UTC NOAA

SCCY 110100Z AUTO VRB02KT 9999 SCT046 03/M03 Q1016


Station Type Date Time Source
SCCY Decoded METAR 2020/08/11 01:00 UTC NOAA

Coyhaique, Chile (SCCY) 45-35S 072-07W
Aug 10, 2020 - 09:00 PM EDT / 2020.08.11 0100 UTC
Wind: Variable at 2 MPH (2 KT):0
Visibility: greater than 7 mile(s):0
Sky conditions: partly cloudy
Temperature: 37 F (3 C)
Dew Point: 26 F (-3 C)
Relative Humidity: 64%
Pressure (altimeter): 30.00 in. Hg (1016 hPa)
ob: SCCY 110100Z AUTO VRB02KT 9999 SCT046 03/M03 Q1016
cycle: 1

Station Type Date Time Source
SCCY TAF 2020/08/10 12:33 UTC NOAA

TAF SCCY 101110Z 1012/1024 VRB03KT CAVOK TNM01/1012Z TX04/1018Z
BECMG 1014/1016 30012KT SCT035

Example: see airport list